sensor_id;sensor_type;location;lat;lon;timestamp;pressure;altitude;pressure_sealevel;temperature;humidity
8707;BME280;75512;49.302;9.306;2024-02-21T00:02:09;100804.56;;;6.83;54.98
8707;BME280;75512;49.302;9.306;2024-02-21T00:04:37;100793.09;;;7.00;54.19
8707;BME280;75512;49.302;9.306;2024-02-21T00:07:05;100791.75;;;6.51;54.91
8707;BME280;75512;49.302;9.306;2024-02-21T00:09:34;100784.31;;;6.88;54.34
8707;BME280;75512;49.302;9.306;2024-02-21T00:12:02;100779.34;;;6.98;53.91
8707;BME280;75512;49.302;9.306;2024-02-21T00:14:30;100774.69;;;7.03;53.88
8707;BME280;75512;49.302;9.306;2024-02-21T00:16:58;100772.34;;;6.85;54.57
8707;BME280;75512;49.302;9.306;2024-02-21T00:19:26;100756.75;;;6.85;54.63
8707;BME280;75512;49.302;9.306;2024-02-21T00:21:53;100760.03;;;6.61;54.99
8707;BME280;75512;49.302;9.306;2024-02-21T00:24:21;100750.25;;;6.78;54.54
8707;BME280;75512;49.302;9.306;2024-02-21T00:26:51;100753.25;;;6.58;55.05
8707;BME280;75512;49.302;9.306;2024-02-21T00:29:19;100757.53;;;6.31;56.08
8707;BME280;75512;49.302;9.306;2024-02-21T00:31:48;100750.16;;;5.66;57.40
8707;BME280;75512;49.302;9.306;2024-02-21T00:34:16;100743.56;;;5.61;57.81
8707;BME280;75512;49.302;9.306;2024-02-21T00:36:44;100742.78;;;5.44;58.82
8707;BME280;75512;49.302;9.306;2024-02-21T00:39:12;100747.78;;;5.77;57.70
8707;BME280;75512;49.302;9.306;2024-02-21T00:41:39;100745.66;;;6.27;56.37
8707;BME280;75512;49.302;9.306;2024-02-21T00:44:09;100736.84;;;6.29;56.05
8707;BME280;75512;49.302;9.306;2024-02-21T00:46:36;100732.97;;;5.49;58.41
8707;BME280;75512;49.302;9.306;2024-02-21T00:49:05;100732.88;;;6.09;56.58
8707;BME280;75512;49.302;9.306;2024-02-21T00:51:33;100732.31;;;6.04;56.42
8707;BME280;75512;49.302;9.306;2024-02-21T00:54:01;100730.34;;;6.36;55.76
8707;BME280;75512;49.302;9.306;2024-02-21T00:56:28;100730.44;;;6.35;55.83
8707;BME280;75512;49.302;9.306;2024-02-21T00:58:57;100723.75;;;6.45;55.91
8707;BME280;75512;49.302;9.306;2024-02-21T01:01:26;100733.00;;;6.77;54.41
8707;BME280;75512;49.302;9.306;2024-02-21T01:03:54;100717.44;;;6.49;55.23
8707;BME280;75512;49.302;9.306;2024-02-21T01:06:22;100717.28;;;6.38;55.06
8707;BME280;75512;49.302;9.306;2024-02-21T01:08:50;100710.41;;;5.94;56.58
8707;BME280;75512;49.302;9.306;2024-02-21T01:11:17;100699.19;;;6.36;55.91
8707;BME280;75512;49.302;9.306;2024-02-21T01:13:45;100703.84;;;6.17;56.11
8707;BME280;75512;49.302;9.306;2024-02-21T01:16:13;100695.03;;;6.05;56.97
8707;BME280;75512;49.302;9.306;2024-02-21T01:18:42;100687.91;;;6.09;56.48
8707;BME280;75512;49.302;9.306;2024-02-21T01:21:09;100691.28;;;6.38;55.56
8707;BME280;75512;49.302;9.306;2024-02-21T01:23:37;100700.97;;;6.07;56.55
8707;BME280;75512;49.302;9.306;2024-02-21T01:26:05;100691.28;;;5.52;58.33
8707;BME280;75512;49.302;9.306;2024-02-21T01:28:34;100681.97;;;4.88;60.38
8707;BME280;75512;49.302;9.306;2024-02-21T01:31:03;100678.66;;;4.39;62.18
8707;BME280;75512;49.302;9.306;2024-02-21T01:33:31;100678.94;;;5.12;60.24
8707;BME280;75512;49.302;9.306;2024-02-21T01:36:03;100676.91;;;4.71;61.04
8707;BME280;75512;49.302;9.306;2024-02-21T01:38:33;100677.75;;;4.40;61.98
8707;BME280;75512;49.302;9.306;2024-02-21T01:41:00;100688.44;;;4.81;60.88
8707;BME280;75512;49.302;9.306;2024-02-21T01:43:28;100675.16;;;5.47;59.08
8707;BME280;75512;49.302;9.306;2024-02-21T01:45:57;100666.09;;;5.83;57.62
8707;BME280;75512;49.302;9.306;2024-02-21T01:48:25;100668.78;;;6.10;57.31
8707;BME280;75512;49.302;9.306;2024-02-21T01:50:54;100661.53;;;6.29;56.69
8707;BME280;75512;49.302;9.306;2024-02-21T01:53:27;100658.16;;;6.41;56.46
8707;BME280;75512;49.302;9.306;2024-02-21T01:55:57;100662.66;;;6.52;56.32
8707;BME280;75512;49.302;9.306;2024-02-21T01:58:25;100651.38;;;6.80;54.74
8707;BME280;75512;49.302;9.306;2024-02-21T02:00:53;100664.19;;;6.83;55.88
8707;BME280;75512;49.302;9.306;2024-02-21T02:03:23;100658.03;;;6.84;56.19
8707;BME280;75512;49.302;9.306;2024-02-21T02:05:52;100663.97;;;6.86;55.65
8707;BME280;75512;49.302;9.306;2024-02-21T02:08:19;100658.94;;;7.10;55.11
8707;BME280;75512;49.302;9.306;2024-02-21T02:10:50;100664.28;;;7.21;55.08
8707;BME280;75512;49.302;9.306;2024-02-21T02:13:17;100662.38;;;7.10;55.39
8707;BME280;75512;49.302;9.306;2024-02-21T02:15:46;100653.88;;;7.21;54.50
8707;BME280;75512;49.302;9.306;2024-02-21T02:18:16;100652.00;;;6.83;55.28
8707;BME280;75512;49.302;9.306;2024-02-21T02:20:44;100654.72;;;6.41;57.48
8707;BME280;75512;49.302;9.306;2024-02-21T02:23:21;100649.78;;;6.09;58.16
8707;BME280;75512;49.302;9.306;2024-02-21T02:25:50;100653.50;;;6.46;57.15
8707;BME280;75512;49.302;9.306;2024-02-21T02:28:19;100649.56;;;6.53;57.03
8707;BME280;75512;49.302;9.306;2024-02-21T02:30:48;100636.03;;;6.89;56.58
8707;BME280;75512;49.302;9.306;2024-02-21T02:33:16;100624.06;;;7.00;56.46
8707;BME280;75512;49.302;9.306;2024-02-21T02:35:45;100625.00;;;6.99;56.50
8707;BME280;75512;49.302;9.306;2024-02-21T02:38:12;100629.63;;;6.81;56.57
8707;BME280;75512;49.302;9.306;2024-02-21T02:40:43;100618.00;;;6.86;56.86
8707;BME280;75512;49.302;9.306;2024-02-21T02:43:11;100612.63;;;6.63;56.83
8707;BME280;75512;49.302;9.306;2024-02-21T02:45:39;100613.84;;;6.57;57.45
8707;BME280;75512;49.302;9.306;2024-02-21T02:48:07;100614.56;;;6.32;57.94
8707;BME280;75512;49.302;9.306;2024-02-21T02:50:35;100617.41;;;6.15;58.29
8707;BME280;75512;49.302;9.306;2024-02-21T02:53:03;100614.66;;;6.31;57.52
8707;BME280;75512;49.302;9.306;2024-02-21T02:55:30;100605.00;;;5.92;58.87
8707;BME280;75512;49.302;9.306;2024-02-21T02:57:59;100595.28;;;5.67;59.41
8707;BME280;75512;49.302;9.306;2024-02-21T03:00:27;100591.31;;;5.03;61.60
8707;BME280;75512;49.302;9.306;2024-02-21T03:02:55;100578.41;;;5.45;60.57
8707;BME280;75512;49.302;9.306;2024-02-21T03:05:22;100580.44;;;5.40;60.81
8707;BME280;75512;49.302;9.306;2024-02-21T03:07:50;100585.19;;;5.76;59.47
8707;BME280;75512;49.302;9.306;2024-02-21T03:10:18;100576.22;;;6.09;58.55
8707;BME280;75512;49.302;9.306;2024-02-21T03:12:46;100573.38;;;5.99;58.53
8707;BME280;75512;49.302;9.306;2024-02-21T03:15:15;100567.97;;;5.47;59.84
8707;BME280;75512;49.302;9.306;2024-02-21T03:17:42;100567.00;;;5.91;58.60
8707;BME280;75512;49.302;9.306;2024-02-21T03:20:11;100567.47;;;6.24;57.03
8707;BME280;75512;49.302;9.306;2024-02-21T03:22:40;100567.88;;;6.04;57.56
8707;BME280;75512;49.302;9.306;2024-02-21T03:25:09;100560.41;;;6.26;56.93
8707;BME280;75512;49.302;9.306;2024-02-21T03:27:36;100551.66;;;6.00;57.71
8707;BME280;75512;49.302;9.306;2024-02-21T03:30:05;100558.00;;;5.11;60.79
8707;BME280;75512;49.302;9.306;2024-02-21T03:32:34;100571.84;;;5.40;60.23
8707;BME280;75512;49.302;9.306;2024-02-21T03:35:02;100553.97;;;5.49;59.71
8707;BME280;75512;49.302;9.306;2024-02-21T03:37:29;100548.50;;;5.40;60.08
8707;BME280;75512;49.302;9.306;2024-02-21T03:39:57;100544.03;;;5.42;60.21
8707;BME280;75512;49.302;9.306;2024-02-21T03:42:25;100545.72;;;5.57;59.57
8707;BME280;75512;49.302;9.306;2024-02-21T03:44:52;100528.69;;;5.94;58.25
8707;BME280;75512;49.302;9.306;2024-02-21T03:47:20;100523.22;;;6.26;57.48
8707;BME280;75512;49.302;9.306;2024-02-21T03:49:49;100529.41;;;6.50;56.76
8707;BME280;75512;49.302;9.306;2024-02-21T03:52:17;100546.63;;;6.65;55.83
8707;BME280;75512;49.302;9.306;2024-02-21T03:54:45;100540.44;;;6.53;56.18
8707;BME280;75512;49.302;9.306;2024-02-21T03:57:13;100523.63;;;6.72;55.66
8707;BME280;75512;49.302;9.306;2024-02-21T03:59:41;100514.50;;;6.66;55.63
8707;BME280;75512;49.302;9.306;2024-02-21T04:02:10;100514.88;;;6.73;56.02
8707;BME280;75512;49.302;9.306;2024-02-21T04:04:42;100515.56;;;6.76;55.61
8707;BME280;75512;49.302;9.306;2024-02-21T04:07:14;100522.97;;;6.82;55.65
8707;BME280;75512;49.302;9.306;2024-02-21T04:09:42;100520.25;;;6.97;55.13
8707;BME280;75512;49.302;9.306;2024-02-21T04:12:09;100527.03;;;6.86;56.08
8707;BME280;75512;49.302;9.306;2024-02-21T04:14:37;100521.31;;;6.94;56.17
8707;BME280;75512;49.302;9.306;2024-02-21T04:17:08;100513.69;;;7.04;55.55
8707;BME280;75512;49.302;9.306;2024-02-21T04:19:36;100524.09;;;7.04;55.73
8707;BME280;75512;49.302;9.306;2024-02-21T04:22:04;100519.75;;;7.04;55.83
8707;BME280;75512;49.302;9.306;2024-02-21T04:24:33;100522.44;;;7.03;56.18
8707;BME280;75512;49.302;9.306;2024-02-21T04:27:00;100518.38;;;6.99;56.37
8707;BME280;75512;49.302;9.306;2024-02-21T04:29:29;100516.19;;;7.05;55.90
8707;BME280;75512;49.302;9.306;2024-02-21T04:31:56;100516.72;;;7.10;55.98
8707;BME280;75512;49.302;9.306;2024-02-21T04:34:24;100517.97;;;7.05;56.45
8707;BME280;75512;49.302;9.306;2024-02-21T04:36:53;100507.38;;;6.95;56.82
8707;BME280;75512;49.302;9.306;2024-02-21T04:39:20;100508.28;;;7.07;56.51
8707;BME280;75512;49.302;9.306;2024-02-21T04:41:49;100507.97;;;6.99;56.56
8707;BME280;75512;49.302;9.306;2024-02-21T04:44:17;100507.56;;;7.17;55.70
8707;BME280;75512;49.302;9.306;2024-02-21T04:46:48;100509.13;;;7.20;55.74
8707;BME280;75512;49.302;9.306;2024-02-21T04:49:16;100504.97;;;7.05;56.01
8707;BME280;75512;49.302;9.306;2024-02-21T04:51:43;100506.22;;;6.99;55.90
8707;BME280;75512;49.302;9.306;2024-02-21T04:54:11;100500.09;;;6.48;57.43
8707;BME280;75512;49.302;9.306;2024-02-21T04:56:39;100494.59;;;6.52;56.43
8707;BME280;75512;49.302;9.306;2024-02-21T04:59:08;100494.63;;;6.65;55.94
8707;BME280;75512;49.302;9.306;2024-02-21T05:01:35;100492.09;;;6.51;56.56
8707;BME280;75512;49.302;9.306;2024-02-21T05:04:03;100488.81;;;6.62;56.06
8707;BME280;75512;49.302;9.306;2024-02-21T05:06:31;100489.34;;;6.67;56.07
8707;BME280;75512;49.302;9.306;2024-02-21T05:08:59;100474.25;;;6.72;56.13
8707;BME280;75512;49.302;9.306;2024-02-21T05:11:26;100472.25;;;6.75;56.22
8707;BME280;75512;49.302;9.306;2024-02-21T05:13:54;100473.56;;;6.95;55.57
8707;BME280;75512;49.302;9.306;2024-02-21T05:16:23;100467.09;;;7.01;55.23
8707;BME280;75512;49.302;9.306;2024-02-21T05:18:51;100459.69;;;6.56;56.38
8707;BME280;75512;49.302;9.306;2024-02-21T05:21:19;100458.50;;;6.35;56.23
8707;BME280;75512;49.302;9.306;2024-02-21T05:23:46;100457.59;;;6.49;56.12
8707;BME280;75512;49.302;9.306;2024-02-21T05:26:20;100456.59;;;6.12;56.78
8707;BME280;75512;49.302;9.306;2024-02-21T05:28:47;100458.69;;;5.66;57.73
8707;BME280;75512;49.302;9.306;2024-02-21T05:31:15;100454.41;;;6.18;56.53
8707;BME280;75512;49.302;9.306;2024-02-21T05:33:45;100453.72;;;5.63;57.63
8707;BME280;75512;49.302;9.306;2024-02-21T05:36:13;100449.00;;;5.55;57.85
8707;BME280;75512;49.302;9.306;2024-02-21T05:38:41;100456.59;;;5.15;58.63
8707;BME280;75512;49.302;9.306;2024-02-21T05:41:09;100444.13;;;5.22;59.15
8707;BME280;75512;49.302;9.306;2024-02-21T05:43:38;100444.31;;;5.05;59.41
8707;BME280;75512;49.302;9.306;2024-02-21T05:46:06;100447.88;;;4.88;59.27
8707;BME280;75512;49.302;9.306;2024-02-21T05:48:33;100460.88;;;5.02;59.38
8707;BME280;75512;49.302;9.306;2024-02-21T05:51:06;100447.94;;;5.31;58.33
8707;BME280;75512;49.302;9.306;2024-02-21T05:53:34;100443.72;;;5.57;57.30
8707;BME280;75512;49.302;9.306;2024-02-21T05:56:03;100442.97;;;5.54;57.09
8707;BME280;75512;49.302;9.306;2024-02-21T05:58:31;100426.50;;;4.70;59.51
8707;BME280;75512;49.302;9.306;2024-02-21T06:00:58;100433.56;;;4.97;58.69
8707;BME280;75512;49.302;9.306;2024-02-21T06:03:25;100450.00;;;4.67;59.55
8707;BME280;75512;49.302;9.306;2024-02-21T06:05:53;100449.47;;;4.76;59.70
8707;BME280;75512;49.302;9.306;2024-02-21T06:08:22;100451.44;;;4.87;59.21
8707;BME280;75512;49.302;9.306;2024-02-21T06:10:50;100452.63;;;5.10;58.25
8707;BME280;75512;49.302;9.306;2024-02-21T06:13:21;100455.47;;;5.48;56.91
8707;BME280;75512;49.302;9.306;2024-02-21T06:15:49;100445.97;;;5.34;57.33
8707;BME280;75512;49.302;9.306;2024-02-21T06:18:17;100451.16;;;5.75;55.94
8707;BME280;75512;49.302;9.306;2024-02-21T06:20:44;100452.78;;;5.91;57.93
8707;BME280;75512;49.302;9.306;2024-02-21T06:23:12;100446.50;;;6.07;55.85
8707;BME280;75512;49.302;9.306;2024-02-21T06:25:43;100440.09;;;6.26;55.44
8707;BME280;75512;49.302;9.306;2024-02-21T06:28:11;100431.13;;;6.04;55.99
8707;BME280;75512;49.302;9.306;2024-02-21T06:30:39;100425.44;;;6.12;55.21
8707;BME280;75512;49.302;9.306;2024-02-21T06:33:07;100432.19;;;6.27;54.79
8707;BME280;75512;49.302;9.306;2024-02-21T06:35:35;100420.53;;;6.07;55.16
8707;BME280;75512;49.302;9.306;2024-02-21T06:38:04;100420.69;;;6.31;54.33
8707;BME280;75512;49.302;9.306;2024-02-21T06:40:32;100436.84;;;6.09;54.97
8707;BME280;75512;49.302;9.306;2024-02-21T06:43:06;100422.94;;;6.23;54.46
8707;BME280;75512;49.302;9.306;2024-02-21T06:45:34;100429.50;;;6.29;54.33
8707;BME280;75512;49.302;9.306;2024-02-21T06:48:02;100420.34;;;6.23;53.83
8707;BME280;75512;49.302;9.306;2024-02-21T06:50:30;100414.41;;;6.21;54.34
8707;BME280;75512;49.302;9.306;2024-02-21T06:52:57;100417.63;;;6.12;54.61
8707;BME280;75512;49.302;9.306;2024-02-21T06:55:25;100428.06;;;6.37;54.53
8707;BME280;75512;49.302;9.306;2024-02-21T06:57:52;100414.56;;;6.32;54.69
8707;BME280;75512;49.302;9.306;2024-02-21T07:00:22;100415.25;;;6.21;54.22
8707;BME280;75512;49.302;9.306;2024-02-21T07:02:51;100408.00;;;6.27;54.47
8707;BME280;75512;49.302;9.306;2024-02-21T07:05:18;100399.38;;;6.13;54.33
8707;BME280;75512;49.302;9.306;2024-02-21T07:07:46;100396.44;;;6.18;54.26
8707;BME280;75512;49.302;9.306;2024-02-21T07:10:14;100403.22;;;5.81;54.60
8707;BME280;75512;49.302;9.306;2024-02-21T07:12:42;100402.72;;;5.06;57.59
8707;BME280;75512;49.302;9.306;2024-02-21T07:15:10;100393.84;;;5.25;57.48
8707;BME280;75512;49.302;9.306;2024-02-21T07:17:38;100400.69;;;5.26;57.36
8707;BME280;75512;49.302;9.306;2024-02-21T07:20:07;100397.53;;;5.06;57.56
8707;BME280;75512;49.302;9.306;2024-02-21T07:22:34;100398.66;;;5.31;57.04
8707;BME280;75512;49.302;9.306;2024-02-21T07:25:02;100402.91;;;5.03;58.10
8707;BME280;75512;49.302;9.306;2024-02-21T07:27:32;100403.06;;;5.43;56.52
8707;BME280;75512;49.302;9.306;2024-02-21T07:30:00;100400.78;;;5.65;56.32
8707;BME280;75512;49.302;9.306;2024-02-21T07:32:27;100401.34;;;5.83;55.74
8707;BME280;75512;49.302;9.306;2024-02-21T07:34:56;100402.28;;;5.82;56.14
8707;BME280;75512;49.302;9.306;2024-02-21T07:37:24;100394.41;;;5.96;55.23
8707;BME280;75512;49.302;9.306;2024-02-21T07:39:52;100391.44;;;5.63;55.93
8707;BME280;75512;49.302;9.306;2024-02-21T07:42:19;100391.06;;;5.54;56.82
8707;BME280;75512;49.302;9.306;2024-02-21T07:44:47;100391.22;;;5.39;57.35
8707;BME280;75512;49.302;9.306;2024-02-21T07:47:14;100383.78;;;5.74;56.57
8707;BME280;75512;49.302;9.306;2024-02-21T07:49:43;100382.75;;;5.76;56.48
8707;BME280;75512;49.302;9.306;2024-02-21T07:52:13;100374.03;;;5.77;56.49
8707;BME280;75512;49.302;9.306;2024-02-21T07:54:41;100365.50;;;6.15;55.26
8707;BME280;75512;49.302;9.306;2024-02-21T07:57:08;100372.75;;;6.22;55.14
8707;BME280;75512;49.302;9.306;2024-02-21T07:59:36;100372.28;;;6.43;54.70
8707;BME280;75512;49.302;9.306;2024-02-21T08:02:04;100386.41;;;6.51;54.37
8707;BME280;75512;49.302;9.306;2024-02-21T08:04:33;100380.06;;;6.68;54.17
8707;BME280;75512;49.302;9.306;2024-02-21T08:07:01;100384.19;;;6.20;55.41
8707;BME280;75512;49.302;9.306;2024-02-21T08:09:31;100376.00;;;6.26;55.14
8707;BME280;75512;49.302;9.306;2024-02-21T08:11:59;100372.91;;;5.94;56.26
8707;BME280;75512;49.302;9.306;2024-02-21T08:14:27;100371.06;;;5.96;56.02
8707;BME280;75512;49.302;9.306;2024-02-21T08:16:55;100375.31;;;5.84;56.28
8707;BME280;75512;49.302;9.306;2024-02-21T08:19:22;100375.13;;;6.00;56.49
8707;BME280;75512;49.302;9.306;2024-02-21T08:21:50;100369.34;;;6.09;56.18
8707;BME280;75512;49.302;9.306;2024-02-21T08:24:18;100364.47;;;5.78;57.05
8707;BME280;75512;49.302;9.306;2024-02-21T08:26:47;100370.47;;;6.05;56.97
8707;BME280;75512;49.302;9.306;2024-02-21T08:29:14;100364.81;;;5.86;57.44
8707;BME280;75512;49.302;9.306;2024-02-21T08:31:42;100367.38;;;5.73;58.09
8707;BME280;75512;49.302;9.306;2024-02-21T08:34:09;100358.66;;;5.74;57.53
8707;BME280;75512;49.302;9.306;2024-02-21T08:36:37;100369.69;;;5.51;58.03
8707;BME280;75512;49.302;9.306;2024-02-21T08:39:05;100374.22;;;5.47;59.09
8707;BME280;75512;49.302;9.306;2024-02-21T08:41:34;100360.44;;;5.47;58.37
8707;BME280;75512;49.302;9.306;2024-02-21T08:44:23;100355.31;;;6.25;56.77
8707;BME280;75512;49.302;9.306;2024-02-21T08:46:52;100342.06;;;5.77;57.54
8707;BME280;75512;49.302;9.306;2024-02-21T08:49:20;100342.38;;;5.45;59.20
8707;BME280;75512;49.302;9.306;2024-02-21T08:51:48;100345.31;;;5.27;59.58
8707;BME280;75512;49.302;9.306;2024-02-21T08:54:16;100343.72;;;5.38;59.21
8707;BME280;75512;49.302;9.306;2024-02-21T08:56:44;100339.91;;;5.96;58.23
8707;BME280;75512;49.302;9.306;2024-02-21T08:59:11;100334.75;;;6.21;57.13
8707;BME280;75512;49.302;9.306;2024-02-21T09:01:41;100336.47;;;5.96;57.10
8707;BME280;75512;49.302;9.306;2024-02-21T09:04:10;100329.66;;;5.55;58.18
8707;BME280;75512;49.302;9.306;2024-02-21T09:06:37;100338.09;;;5.71;57.68
8707;BME280;75512;49.302;9.306;2024-02-21T09:09:08;100336.03;;;5.76;58.49
8707;BME280;75512;49.302;9.306;2024-02-21T09:11:36;100322.91;;;6.05;58.21
8707;BME280;75512;49.302;9.306;2024-02-21T09:14:04;100327.72;;;5.44;59.29
8707;BME280;75512;49.302;9.306;2024-02-21T09:16:32;100323.50;;;5.83;58.37
8707;BME280;75512;49.302;9.306;2024-02-21T09:19:01;100318.13;;;6.11;57.59
8707;BME280;75512;49.302;9.306;2024-02-21T09:21:29;100324.25;;;6.10;57.78
8707;BME280;75512;49.302;9.306;2024-02-21T09:23:57;100324.81;;;5.76;58.06
8707;BME280;75512;49.302;9.306;2024-02-21T09:26:26;100321.78;;;5.69;58.70
8707;BME280;75512;49.302;9.306;2024-02-21T09:28:54;100318.53;;;6.18;57.01
8707;BME280;75512;49.302;9.306;2024-02-21T09:31:22;100316.75;;;6.69;56.04
8707;BME280;75512;49.302;9.306;2024-02-21T09:33:49;100316.75;;;6.44;56.71
8707;BME280;75512;49.302;9.306;2024-02-21T09:36:18;100317.38;;;6.47;56.82
8707;BME280;75512;49.302;9.306;2024-02-21T09:38:47;100302.31;;;6.65;55.62
8707;BME280;75512;49.302;9.306;2024-02-21T09:41:16;100312.19;;;7.09;54.63
8707;BME280;75512;49.302;9.306;2024-02-21T09:43:51;100300.97;;;6.60;55.14
8707;BME280;75512;49.302;9.306;2024-02-21T09:46:24;100297.47;;;6.97;54.43
8707;BME280;75512;49.302;9.306;2024-02-21T09:49:04;100298.66;;;6.68;53.63
8707;BME280;75512;49.302;9.306;2024-02-21T09:51:40;100297.88;;;7.28;53.33
8707;BME280;75512;49.302;9.306;2024-02-21T09:54:09;100289.53;;;7.70;52.31
8707;BME280;75512;49.302;9.306;2024-02-21T09:56:45;100287.00;;;7.93;50.62
8707;BME280;75512;49.302;9.306;2024-02-21T09:59:13;100288.06;;;7.55;50.97
8707;BME280;75512;49.302;9.306;2024-02-21T10:01:42;100280.22;;;7.20;51.39
8707;BME280;75512;49.302;9.306;2024-02-21T10:04:10;100269.22;;;7.86;50.43
8707;BME280;75512;49.302;9.306;2024-02-21T10:06:39;100272.53;;;7.18;51.48
8707;BME280;75512;49.302;9.306;2024-02-21T10:09:07;100272.59;;;7.65;50.68
8707;BME280;75512;49.302;9.306;2024-02-21T10:11:34;100272.97;;;7.36;50.50
8707;BME280;75512;49.302;9.306;2024-02-21T10:14:04;100266.50;;;7.53;50.64
8707;BME280;75512;49.302;9.306;2024-02-21T10:16:32;100262.25;;;7.17;52.00
8707;BME280;75512;49.302;9.306;2024-02-21T10:19:01;100266.13;;;7.81;49.53
8707;BME280;75512;49.302;9.306;2024-02-21T10:21:30;100248.19;;;7.19;49.68
8707;BME280;75512;49.302;9.306;2024-02-21T10:23:59;100253.59;;;7.51;50.86
8707;BME280;75512;49.302;9.306;2024-02-21T10:26:26;100246.50;;;7.42;50.01
8707;BME280;75512;49.302;9.306;2024-02-21T10:28:54;100250.09;;;7.64;50.88
8707;BME280;75512;49.302;9.306;2024-02-21T10:31:23;100239.59;;;7.65;49.66
8707;BME280;75512;49.302;9.306;2024-02-21T10:33:55;100242.09;;;7.78;49.28
8707;BME280;75512;49.302;9.306;2024-02-21T10:36:24;100238.72;;;8.33;49.03
8707;BME280;75512;49.302;9.306;2024-02-21T10:38:52;100242.41;;;8.31;48.04
8707;BME280;75512;49.302;9.306;2024-02-21T10:41:22;100234.19;;;8.57;47.75
8707;BME280;75512;49.302;9.306;2024-02-21T10:43:51;100217.25;;;8.63;46.62
8707;BME280;75512;49.302;9.306;2024-02-21T10:46:22;100209.34;;;8.97;47.05
8707;BME280;75512;49.302;9.306;2024-02-21T10:49:01;100214.16;;;9.65;46.41
8707;BME280;75512;49.302;9.306;2024-02-21T10:51:33;100207.66;;;8.64;46.81
8707;BME280;75512;49.302;9.306;2024-02-21T10:54:10;100205.44;;;9.02;46.58
8707;BME280;75512;49.302;9.306;2024-02-21T10:56:43;100197.50;;;8.92;45.98
8707;BME280;75512;49.302;9.306;2024-02-21T10:59:12;100188.31;;;9.09;46.00
8707;BME280;75512;49.302;9.306;2024-02-21T11:01:40;100189.53;;;8.62;45.88
8707;BME280;75512;49.302;9.306;2024-02-21T11:04:09;100175.47;;;8.85;46.60
8707;BME280;75512;49.302;9.306;2024-02-21T11:06:38;100184.25;;;7.97;47.71
8707;BME280;75512;49.302;9.306;2024-02-21T11:09:08;100176.66;;;7.82;48.71
8707;BME280;75512;49.302;9.306;2024-02-21T11:11:38;100175.59;;;7.85;48.85
8707;BME280;75512;49.302;9.306;2024-02-21T11:14:10;100172.06;;;8.19;48.62
8707;BME280;75512;49.302;9.306;2024-02-21T11:16:38;100154.50;;;8.33;47.01
8707;BME280;75512;49.302;9.306;2024-02-21T11:19:07;100161.06;;;8.16;47.91
8707;BME280;75512;49.302;9.306;2024-02-21T11:21:37;100160.06;;;8.06;48.04
8707;BME280;75512;49.302;9.306;2024-02-21T11:24:05;100158.19;;;8.41;47.61
8707;BME280;75512;49.302;9.306;2024-02-21T11:26:33;100145.22;;;8.94;45.57
8707;BME280;75512;49.302;9.306;2024-02-21T11:29:01;100135.16;;;9.10;45.75
8707;BME280;75512;49.302;9.306;2024-02-21T11:31:40;100126.84;;;9.37;45.00
8707;BME280;75512;49.302;9.306;2024-02-21T11:34:09;100122.50;;;9.06;45.29
8707;BME280;75512;49.302;9.306;2024-02-21T11:36:46;100123.25;;;8.10;47.38
8707;BME280;75512;49.302;9.306;2024-02-21T11:39:21;100116.78;;;8.16;47.71
8707;BME280;75512;49.302;9.306;2024-02-21T11:42:01;100115.72;;;8.18;47.83
8707;BME280;75512;49.302;9.306;2024-02-21T11:44:29;100107.16;;;8.28;47.40
8707;BME280;75512;49.302;9.306;2024-02-21T11:46:58;100103.28;;;7.88;48.09
8707;BME280;75512;49.302;9.306;2024-02-21T11:49:27;100095.28;;;8.46;47.11
8707;BME280;75512;49.302;9.306;2024-02-21T11:51:59;100086.34;;;8.80;46.80
8707;BME280;75512;49.302;9.306;2024-02-21T11:54:30;100081.41;;;9.19;46.01
8707;BME280;75512;49.302;9.306;2024-02-21T11:56:58;100078.44;;;9.33;45.55
8707;BME280;75512;49.302;9.306;2024-02-21T11:59:26;100078.00;;;8.66;45.73
8707;BME280;75512;49.302;9.306;2024-02-21T12:01:53;100066.19;;;9.45;44.53
8707;BME280;75512;49.302;9.306;2024-02-21T12:04:22;100059.75;;;9.89;43.37
8707;BME280;75512;49.302;9.306;2024-02-21T12:06:52;100059.19;;;9.24;44.30
8707;BME280;75512;49.302;9.306;2024-02-21T12:09:22;100055.38;;;9.08;43.84
8707;BME280;75512;49.302;9.306;2024-02-21T12:11:57;100056.47;;;8.84;45.66
8707;BME280;75512;49.302;9.306;2024-02-21T12:14:25;100056.91;;;8.37;45.21
8707;BME280;75512;49.302;9.306;2024-02-21T12:16:54;100052.78;;;8.34;45.78
8707;BME280;75512;49.302;9.306;2024-02-21T12:19:23;100039.97;;;7.88;47.21
8707;BME280;75512;49.302;9.306;2024-02-21T12:21:51;100035.22;;;7.82;47.44
8707;BME280;75512;49.302;9.306;2024-02-21T12:24:22;100032.09;;;8.21;47.96
8707;BME280;75512;49.302;9.306;2024-02-21T12:26:50;100020.19;;;7.97;46.96
8707;BME280;75512;49.302;9.306;2024-02-21T12:29:18;100017.50;;;7.53;48.50
8707;BME280;75512;49.302;9.306;2024-02-21T12:31:47;100009.78;;;7.74;48.69
8707;BME280;75512;49.302;9.306;2024-02-21T12:34:15;100015.28;;;8.14;47.28
8707;BME280;75512;49.302;9.306;2024-02-21T12:36:58;100006.66;;;8.46;46.86
8707;BME280;75512;49.302;9.306;2024-02-21T12:39:26;99997.03;;;8.14;46.65
8707;BME280;75512;49.302;9.306;2024-02-21T12:41:55;99992.38;;;7.75;48.23
8707;BME280;75512;49.302;9.306;2024-02-21T12:44:23;99987.53;;;7.81;47.51
8707;BME280;75512;49.302;9.306;2024-02-21T12:46:51;99983.06;;;7.72;47.89
8707;BME280;75512;49.302;9.306;2024-02-21T12:49:20;99974.03;;;7.76;48.27
8707;BME280;75512;49.302;9.306;2024-02-21T12:51:48;99972.56;;;7.63;47.45
8707;BME280;75512;49.302;9.306;2024-02-21T12:54:17;99963.44;;;7.68;48.27
8707;BME280;75512;49.302;9.306;2024-02-21T12:56:45;99958.50;;;7.97;47.61
8707;BME280;75512;49.302;9.306;2024-02-21T12:59:13;99958.63;;;7.96;46.65
8707;BME280;75512;49.302;9.306;2024-02-21T13:01:40;99954.16;;;7.86;47.21
8707;BME280;75512;49.302;9.306;2024-02-21T13:04:08;99954.34;;;8.38;46.26
8707;BME280;75512;49.302;9.306;2024-02-21T13:06:36;99944.91;;;8.25;45.59
8707;BME280;75512;49.302;9.306;2024-02-21T13:09:04;99937.81;;;8.69;45.29
8707;BME280;75512;49.302;9.306;2024-02-21T13:11:35;99939.81;;;9.17;44.97
8707;BME280;75512;49.302;9.306;2024-02-21T13:14:04;99923.59;;;9.44;43.66
8707;BME280;75512;49.302;9.306;2024-02-21T13:16:32;99920.47;;;9.69;43.41
8707;BME280;75512;49.302;9.306;2024-02-21T13:19:00;99918.66;;;9.60;43.03
8707;BME280;75512;49.302;9.306;2024-02-21T13:21:28;99903.44;;;9.75;43.21